Time,TemperatureF,DewpointF,PressureIn,WindDirection,WindDirectionDegrees,WindSpeedMPH,WindSpeedGustMPH,Humidity,HourlyPrecipIn,Conditions,Clouds,dailyrainin,SoftwareType,DateUTC
2013-04-04 00:00:00,44.0,-99.9,-100.00,SW,222,7.0,10.0,-999,-99.99,,,-99.99,,2013-04-04 06:00:00,
2013-04-04 00:33:00,44.0,-99.9,-100.00,SW,222,7.0,10.0,-999,-99.99,,,-99.99,,2013-04-04 06:33:00,
2013-04-04 00:43:00,44.0,-99.9,-100.00,SW,222,7.0,10.0,-999,-99.99,,,-99.99,,2013-04-04 06:43:00,
2013-04-04 00:53:00,44.0,-99.9,-100.00,SW,222,7.0,10.0,-999,-99.99,,,-99.99,,2013-04-04 06:53:00,
2013-04-04 01:00:00,44.0,-99.9,-100.00,SW,214,9.0,10.0,-999,-99.99,,,-99.99,,2013-04-04 07:00:00,
2013-04-04 01:32:00,44.0,-99.9,-100.00,SW,214,9.0,10.0,-999,-99.99,,,-99.99,,2013-04-04 07:32:00,
2013-04-04 01:43:00,44.0,-99.9,-100.00,SW,214,9.0,10.0,-999,-99.99,,,-99.99,,2013-04-04 07:43:00,
2013-04-04 01:53:00,44.0,-99.9,-100.00,SW,214,9.0,10.0,-999,-99.99,,,-99.99,,2013-04-04 07:53:00,
2013-04-04 03:00:00,44.0,-99.9,-100.00,SW,218,10.0,12.0,-999,-99.99,,,-99.99,,2013-04-04 09:00:00,
2013-04-04 03:34:00,44.0,-99.9,-100.00,SW,218,10.0,12.0,-999,-99.99,,,-99.99,,2013-04-04 09:34:00,
2013-04-04 03:44:00,44.0,-99.9,-100.00,SW,218,10.0,12.0,-999,-99.99,,,-99.99,,2013-04-04 09:44:00,
2013-04-04 03:54:00,44.0,-99.9,-100.00,SW,218,10.0,12.0,-999,-99.99,,,-99.99,,2013-04-04 09:54:00,
2013-04-04 06:00:00,47.0,-99.9,-100.00,SW,234,5.0,7.0,-999,-99.99,,,-99.99,,2013-04-04 12:00:00,
2013-04-04 06:33:00,47.0,-99.9,-100.00,SW,234,5.0,7.0,-999,-99.99,,,-99.99,,2013-04-04 12:33:00,
2013-04-04 06:44:00,47.0,-99.9,-100.00,SW,234,5.0,7.0,-999,-99.99,,,-99.99,,2013-04-04 12:44:00,
2013-04-04 06:53:00,47.0,-99.9,-100.00,SW,234,5.0,7.0,-999,-99.99,,,-99.99,,2013-04-04 12:53:00,
2013-04-04 07:00:00,40.0,-99.9,-100.00,NNW,345,5.0,5.0,-999,-99.99,,,-99.99,,2013-04-04 13:00:00,
2013-04-04 07:33:00,40.0,-99.9,-100.00,NNW,345,5.0,5.0,-999,-99.99,,,-99.99,,2013-04-04 13:33:00,
2013-04-04 07:43:00,40.0,-99.9,-100.00,NNW,345,5.0,5.0,-999,-99.99,,,-99.99,,2013-04-04 13:43:00,
2013-04-04 07:53:00,40.0,-99.9,-100.00,NNW,345,5.0,5.0,-999,-99.99,,,-99.99,,2013-04-04 13:53:00,
2013-04-04 08:00:00,45.0,-99.9,-100.00,NNE,13,2.0,3.0,-999,-99.99,,,-99.99,,2013-04-04 14:00:00,
2013-04-04 08:33:00,45.0,-99.9,-100.00,NNE,13,2.0,3.0,-999,-99.99,,,-99.99,,2013-04-04 14:33:00,
2013-04-04 08:43:00,45.0,-99.9,-100.00,NNE,13,2.0,3.0,-999,-99.99,,,-99.99,,2013-04-04 14:43:00,
2013-04-04 08:53:00,45.0,-99.9,-100.00,NNE,13,2.0,3.0,-999,-99.99,,,-99.99,,2013-04-04 14:53:00,
2013-04-04 09:00:00,44.0,-99.9,-100.00,ENE,68,3.0,5.0,-999,-99.99,,,-99.99,,2013-04-04 15:00:00,
2013-04-04 09:34:00,44.0,-99.9,-100.00,ENE,68,3.0,5.0,-999,-99.99,,,-99.99,,2013-04-04 15:34:00,
2013-04-04 09:44:00,44.0,-99.9,-100.00,ENE,68,3.0,5.0,-999,-99.99,,,-99.99,,2013-04-04 15:44:00,
2013-04-04 09:54:00,44.0,-99.9,-100.00,ENE,68,3.0,5.0,-999,-99.99,,,-99.99,,2013-04-04 15:54:00,
2013-04-04 10:00:00,48.0,-99.9,-100.00,North,9,9.0,10.0,-999,-99.99,,,-99.99,,2013-04-04 16:00:00,
2013-04-04 10:33:00,48.0,-99.9,-100.00,North,9,9.0,10.0,-999,-99.99,,,-99.99,,2013-04-04 16:33:00,
2013-04-04 10:43:00,48.0,-99.9,-100.00,North,9,9.0,10.0,-999,-99.99,,,-99.99,,2013-04-04 16:43:00,
2013-04-04 10:55:00,48.0,-99.9,-100.00,North,9,9.0,10.0,-999,-99.99,,,-99.99,,2013-04-04 16:55:00,
2013-04-04 11:00:00,55.0,-99.9,-100.00,SW,229,0.0,3.0,-999,-99.99,,,-99.99,,2013-04-04 17:00:00,
2013-04-04 11:34:00,55.0,-99.9,-100.00,SW,229,0.0,3.0,-999,-99.99,,,-99.99,,2013-04-04 17:34:00,
2013-04-04 11:43:00,55.0,-99.9,-100.00,SW,229,0.0,3.0,-999,-99.99,,,-99.99,,2013-04-04 17:43:00,
2013-04-04 11:53:00,55.0,-99.9,-100.00,SW,229,0.0,3.0,-999,-99.99,,,-99.99,,2013-04-04 17:53:00,
2013-04-04 12:00:00,58.0,-99.9,-100.00,NNE,13,2.0,4.0,-999,-99.99,,,-99.99,,2013-04-04 18:00:00,
2013-04-04 12:33:00,58.0,-99.9,-100.00,NNE,13,2.0,4.0,-999,-99.99,,,-99.99,,2013-04-04 18:33:00,
2013-04-04 12:43:00,58.0,-99.9,-100.00,NNE,13,2.0,4.0,-999,-99.99,,,-99.99,,2013-04-04 18:43:00,
2013-04-04 12:53:00,58.0,-99.9,-100.00,NNE,13,2.0,4.0,-999,-99.99,,,-99.99,,2013-04-04 18:53:00,
2013-04-04 13:00:00,59.0,-99.9,-100.00,NE,35,2.0,5.0,-999,-99.99,,,-99.99,,2013-04-04 19:00:00,
2013-04-04 13:33:00,59.0,-99.9,-100.00,NE,35,2.0,5.0,-999,-99.99,,,-99.99,,2013-04-04 19:33:00,
2013-04-04 13:43:00,59.0,-99.9,-100.00,NE,35,2.0,5.0,-999,-99.99,,,-99.99,,2013-04-04 19:43:00,
2013-04-04 13:53:00,59.0,-99.9,-100.00,NE,35,2.0,5.0,-999,-99.99,,,-99.99,,2013-04-04 19:53:00,
2013-04-04 14:00:00,64.0,-99.9,-100.00,North,354,6.0,10.0,-999,-99.99,,,-99.99,,2013-04-04 20:00:00,
2013-04-04 14:33:00,64.0,-99.9,-100.00,North,354,6.0,10.0,-999,-99.99,,,-99.99,,2013-04-04 20:33:00,
2013-04-04 14:42:00,64.0,-99.9,-100.00,North,354,6.0,10.0,-999,-99.99,,,-99.99,,2013-04-04 20:42:00,
2013-04-04 14:53:00,64.0,-99.9,-100.00,North,354,6.0,10.0,-999,-99.99,,,-99.99,,2013-04-04 20:53:00,
2013-04-04 15:00:00,66.0,-99.9,-100.00,NNE,20,7.0,8.0,-999,-99.99,,,-99.99,,2013-04-04 21:00:00,
2013-04-04 15:33:00,66.0,-99.9,-100.00,NNE,20,7.0,8.0,-999,-99.99,,,-99.99,,2013-04-04 21:33:00,
2013-04-04 15:43:00,66.0,-99.9,-100.00,NNE,20,7.0,8.0,-999,-99.99,,,-99.99,,2013-04-04 21:43:00,
2013-04-04 15:53:00,66.0,-99.9,-100.00,NNE,20,7.0,8.0,-999,-99.99,,,-99.99,,2013-04-04 21:53:00,
2013-04-04 16:00:00,65.0,-99.9,-100.00,North,7,7.0,9.0,-999,-99.99,,,-99.99,,2013-04-04 22:00:00,
2013-04-04 16:34:00,65.0,-99.9,-100.00,North,7,7.0,9.0,-999,-99.99,,,-99.99,,2013-04-04 22:34:00,
2013-04-04 16:43:00,65.0,-99.9,-100.00,North,7,7.0,9.0,-999,-99.99,,,-99.99,,2013-04-04 22:43:00,
2013-04-04 16:53:00,65.0,-99.9,-100.00,North,7,7.0,9.0,-999,-99.99,,,-99.99,,2013-04-04 22:53:00,
2013-04-04 17:00:00,66.0,-99.9,-100.00,NW,323,2.0,7.0,-999,-99.99,,,-99.99,,2013-04-04 23:00:00,
2013-04-04 17:32:00,66.0,-99.9,-100.00,NW,323,2.0,7.0,-999,-99.99,,,-99.99,,2013-04-04 23:32:00,
2013-04-04 17:43:00,66.0,-99.9,-100.00,NW,323,2.0,7.0,-999,-99.99,,,-99.99,,2013-04-04 23:43:00,
2013-04-04 17:53:00,66.0,-99.9,-100.00,NW,323,2.0,7.0,-999,-99.99,,,-99.99,,2013-04-04 23:53:00,
2013-04-04 18:00:00,65.0,-99.9,-100.00,West,267,17.0,22.0,-999,-99.99,,,-99.99,,2013-04-05 00:00:00,
2013-04-04 18:33:00,65.0,-99.9,-100.00,West,267,17.0,22.0,-999,-99.99,,,-99.99,,2013-04-05 00:33:00,
2013-04-04 18:43:00,65.0,-99.9,-100.00,West,267,17.0,22.0,-999,-99.99,,,-99.99,,2013-04-05 00:43:00,
2013-04-04 18:52:00,65.0,-99.9,-100.00,West,267,17.0,22.0,-999,-99.99,,,-99.99,,2013-04-05 00:52:00,
2013-04-04 19:00:00,62.0,-99.9,-100.00,WNW,287,18.0,23.0,-999,-99.99,,,-99.99,,2013-04-05 01:00:00,
2013-04-04 19:33:00,62.0,-99.9,-100.00,WNW,287,18.0,23.0,-999,-99.99,,,-99.99,,2013-04-05 01:33:00,
2013-04-04 19:43:00,62.0,-99.9,-100.00,WNW,287,18.0,23.0,-999,-99.99,,,-99.99,,2013-04-05 01:43:00,
2013-04-04 19:54:00,62.0,-99.9,-100.00,WNW,287,18.0,23.0,-999,-99.99,,,-99.99,,2013-04-05 01:54:00,
2013-04-04 20:00:00,57.0,-99.9,-100.00,West,276,14.0,17.0,-999,-99.99,,,-99.99,,2013-04-05 02:00:00,
2013-04-04 20:32:00,57.0,-99.9,-100.00,West,276,14.0,17.0,-999,-99.99,,,-99.99,,2013-04-05 02:32:00,
2013-04-04 20:42:00,57.0,-99.9,-100.00,West,276,14.0,17.0,-999,-99.99,,,-99.99,,2013-04-05 02:42:00,
2013-04-04 20:52:00,57.0,-99.9,-100.00,West,276,14.0,17.0,-999,-99.99,,,-99.99,,2013-04-05 02:52:00,
2013-04-04 21:00:00,56.0,-99.9,-100.00,WSW,258,4.0,8.0,-999,-99.99,,,-99.99,,2013-04-05 03:00:00,
2013-04-04 21:33:00,56.0,-99.9,-100.00,WSW,258,4.0,8.0,-999,-99.99,,,-99.99,,2013-04-05 03:33:00,
2013-04-04 21:43:00,56.0,-99.9,-100.00,WSW,258,4.0,8.0,-999,-99.99,,,-99.99,,2013-04-05 03:43:00,
2013-04-04 21:55:00,56.0,-99.9,-100.00,WSW,258,4.0,8.0,-999,-99.99,,,-99.99,,2013-04-05 03:55:00,
2013-04-04 22:00:00,54.0,-99.9,-100.00,SW,229,8.0,9.0,-999,-99.99,,,-99.99,,2013-04-05 04:00:00,
2013-04-04 22:33:00,54.0,-99.9,-100.00,SW,229,8.0,9.0,-999,-99.99,,,-99.99,,2013-04-05 04:33:00,
2013-04-04 22:43:00,54.0,-99.9,-100.00,SW,229,8.0,9.0,-999,-99.99,,,-99.99,,2013-04-05 04:43:00,
2013-04-04 22:53:00,54.0,-99.9,-100.00,SW,229,8.0,9.0,-999,-99.99,,,-99.99,,2013-04-05 04:53:00,
2013-04-04 23:00:00,54.0,-99.9,-100.00,WSW,241,9.0,11.0,-999,-99.99,,,-99.99,,2013-04-05 05:00:00,
2013-04-04 23:32:00,54.0,-99.9,-100.00,WSW,241,9.0,11.0,-999,-99.99,,,-99.99,,2013-04-05 05:32:00,
2013-04-04 23:42:00,54.0,-99.9,-100.00,WSW,241,9.0,11.0,-999,-99.99,,,-99.99,,2013-04-05 05:42:00,
2013-04-04 23:53:00,54.0,-99.9,-100.00,WSW,241,9.0,11.0,-999,-99.99,,,-99.99,,2013-04-05 05:53:00,